Nevada, Texas
Current Conditions -  °F | °C
As of 10:35 AM on Saturday 22 Nov 2014 (Local Time) from KF46 Reporting Station
Overcast Overcast  
Wind Chill: 62°   Ceiling: 1400
Heat Index: 62°   Visibility: 10mi
Dew Point: 56°   Wind: 9mph
Humidity: 81%   Direction: 170°S
Pressure: 30.04"   Gusts: 22mph
Location:  33.04°N, 96.37°W
Report Text: KF46 221635Z AUTO 17008G19KT 10SM OVC014 17/14 A3004 RMK AO2 LTG DSNT SW THRU N T01680135
Loading
Personal Weather Stations






























Interactive Weather Map New forecast layout! Learn more

10-Day Weather Forecast

Advertisements
Track Severe Weather on mobile